createdAt,value
2023-01-15T00:00:05.974Z,6.87874
2023-01-15T00:05:06.919Z,6.90361
2023-01-15T00:10:07.837Z,6.9456
2023-01-15T00:15:08.909Z,6.93591
2023-01-15T00:20:09.871Z,6.97145
2023-01-15T00:25:10.841Z,7.01247
2023-01-15T00:30:11.805Z,7.04413
2023-01-15T00:35:12.834Z,7.09484
2023-01-15T00:40:13.829Z,7.13135
2023-01-15T00:45:14.751Z,7.16494
2023-01-15T00:50:16.117Z,7.13587
2023-01-15T00:55:17.066Z,7.19175
2023-01-15T01:00:18.058Z,7.22276
2023-01-15T01:05:18.985Z,7.24828
2023-01-15T01:10:19.926Z,7.32322
2023-01-15T01:15:20.903Z,7.33259
2023-01-15T01:20:21.900Z,7.42659
2023-01-15T01:25:22.953Z,7.45728
2023-01-15T01:30:23.858Z,7.55645
2023-01-15T01:35:24.778Z,7.66693
2023-01-15T01:40:25.719Z,7.76739
2023-01-15T01:45:26.795Z,7.81778
2023-01-15T01:50:27.765Z,7.85752
2023-01-15T01:55:28.683Z,7.82877
2023-01-15T02:00:29.799Z,7.83426
2023-01-15T02:05:30.916Z,7.78871
2023-01-15T02:10:31.824Z,7.7283
2023-01-15T02:15:32.767Z,7.66822
2023-01-15T02:20:33.709Z,7.5936
2023-01-15T02:25:34.650Z,7.55225
2023-01-15T02:30:35.609Z,7.58714
2023-01-15T02:35:36.553Z,7.58326
2023-01-15T02:40:37.479Z,7.6217
2023-01-15T02:45:38.472Z,7.54741
2023-01-15T02:50:39.382Z,7.58617
2023-01-15T02:55:40.291Z,7.52286
2023-01-15T03:00:41.328Z,7.46697
2023-01-15T03:05:42.524Z,7.44662
2023-01-15T03:10:44.077Z,7.50574
2023-01-15T03:15:45.054Z,7.51866
2023-01-15T03:20:46.019Z,7.48345
2023-01-15T03:25:46.968Z,7.50638
2023-01-15T03:30:47.913Z,7.42756
2023-01-15T03:35:48.867Z,7.46245
2023-01-15T03:40:49.911Z,7.53416
2023-01-15T03:45:50.890Z,7.5164
2023-01-15T03:50:51.858Z,7.49605
2023-01-15T03:55:52.794Z,7.44371
2023-01-15T04:00:53.832Z,7.4912
2023-01-15T04:05:54.833Z,7.41884
2023-01-15T04:10:55.768Z,7.45793
2023-01-15T04:15:56.802Z,7.47182
2023-01-15T04:20:57.771Z,7.5684
2023-01-15T04:25:58.716Z,7.62946
2023-01-15T04:30:59.727Z,7.23633
2023-01-15T04:36:00.746Z,6.54505
2023-01-15T04:41:01.829Z,6.10153
2023-01-15T04:46:02.852Z,5.91483
2023-01-15T04:51:03.824Z,5.82567
2023-01-15T04:56:04.728Z,5.71229
2023-01-15T05:01:05.886Z,5.54302
2023-01-15T05:06:06.937Z,5.26878
2023-01-15T05:11:07.874Z,5.27556
2023-01-15T05:16:08.905Z,5.2116
2023-01-15T05:21:09.885Z,5.18156
2023-01-15T05:26:10.916Z,5.12988
2023-01-15T05:31:11.916Z,5.11276
2023-01-15T05:36:12.938Z,5.0895
2023-01-15T05:41:13.889Z,4.87792
2023-01-15T05:46:14.844Z,4.84691
2023-01-15T05:51:15.784Z,4.98646
2023-01-15T05:56:16.795Z,4.96449
2023-01-15T06:01:17.753Z,4.92185
2023-01-15T06:06:18.829Z,4.94834
2023-01-15T06:11:19.770Z,5.04815
2023-01-15T06:16:20.735Z,5.17413
2023-01-15T06:21:21.790Z,5.25456
2023-01-15T06:26:22.712Z,5.31271
2023-01-15T06:31:23.732Z,5.36213
2023-01-15T06:36:24.708Z,5.29559
2023-01-15T06:41:25.719Z,5.26749
2023-01-15T06:46:26.768Z,5.3027
2023-01-15T06:51:29.145Z,5.314
2023-01-15T06:56:31.824Z,5.26458
2023-01-15T07:01:32.935Z,5.16606
2023-01-15T07:06:33.904Z,5.13214
2023-01-15T07:11:34.778Z,5.07109
2023-01-15T07:16:35.860Z,5.03556
2023-01-15T07:21:36.800Z,4.9464
2023-01-15T07:26:37.760Z,4.9548
2023-01-15T07:31:38.754Z,4.97483
2023-01-15T07:36:39.749Z,4.92637
2023-01-15T07:41:40.735Z,4.85919
2023-01-15T07:46:41.687Z,4.96804
2023-01-15T07:51:42.775Z,4.97386
2023-01-15T07:56:44.007Z,4.9758
2023-01-15T08:01:44.995Z,4.90506
2023-01-15T08:06:45.980Z,4.93542
2023-01-15T08:11:46.905Z,4.83044
2023-01-15T08:16:47.897Z,4.81138
2023-01-15T08:21:48.812Z,4.86403
2023-01-15T08:26:49.735Z,4.92799
2023-01-15T08:31:50.692Z,4.8776
2023-01-15T08:36:51.889Z,4.91539
2023-01-15T08:41:52.891Z,4.90118
2023-01-15T08:46:53.813Z,4.89213
2023-01-15T08:51:54.730Z,4.94059
2023-01-15T08:56:55.897Z,5.02748
2023-01-15T09:01:56.991Z,5.03039
2023-01-15T09:06:58.022Z,5.05268
2023-01-15T09:11:58.978Z,5.11502
2023-01-15T09:16:59.975Z,5.14409
2023-01-15T09:22:00.918Z,5.06334
2023-01-15T09:27:02.180Z,5.15798
2023-01-15T09:32:03.101Z,5.23002
2023-01-15T09:37:04.032Z,5.21063
2023-01-15T09:42:05.361Z,5.20191
2023-01-15T09:47:06.321Z,5.21709
2023-01-15T09:52:07.270Z,5.22259
2023-01-15T09:57:08.191Z,5.54141
2023-01-15T10:02:09.097Z,5.78788
2023-01-15T10:07:10.063Z,5.8415
2023-01-15T10:12:11.018Z,6.12867
2023-01-15T10:17:11.945Z,6.17712
2023-01-15T10:22:12.919Z,6.11542
2023-01-15T10:27:13.973Z,6.09733
2023-01-15T10:32:14.922Z,6.11026
2023-01-15T10:37:15.932Z,6.24205
2023-01-15T10:42:16.886Z,6.29309
2023-01-15T10:47:17.912Z,6.42682
2023-01-15T10:52:18.913Z,6.42101
2023-01-15T10:57:19.869Z,6.45848
2023-01-15T11:02:20.912Z,6.54957
2023-01-15T11:07:21.932Z,6.5331
2023-01-15T11:12:22.859Z,6.70915
2023-01-15T11:17:23.776Z,6.76019
2023-01-15T11:22:24.736Z,6.71432
2023-01-15T11:27:25.842Z,6.66295
2023-01-15T11:32:26.849Z,6.69978
2023-01-15T11:37:27.866Z,6.63679
2023-01-15T11:42:28.872Z,6.42391
2023-01-15T11:47:29.785Z,6.43813
2023-01-15T11:52:30.711Z,6.55086
2023-01-15T11:57:31.679Z,6.41196
2023-01-15T12:02:32.611Z,6.36286
2023-01-15T12:07:33.560Z,6.29277
2023-01-15T12:12:34.428Z,6.36448
2023-01-15T12:17:37.430Z,6.42391
2023-01-15T12:22:38.576Z,6.36577
2023-01-15T12:27:39.601Z,6.48464
2023-01-15T12:32:40.512Z,6.50919
2023-01-15T12:37:41.425Z,6.48303
2023-01-15T12:42:42.699Z,6.81704
2023-01-15T12:47:43.943Z,6.90846
2023-01-15T12:52:44.907Z,6.77085
2023-01-15T12:57:45.854Z,6.59383
2023-01-15T13:02:46.774Z,6.44943
2023-01-15T13:07:47.777Z,6.43393
2023-01-15T13:12:53.698Z,6.40389
2023-01-15T13:17:54.606Z,6.53988
2023-01-15T13:22:55.501Z,6.73337
2023-01-15T13:27:56.444Z,6.58543
2023-01-15T13:32:57.363Z,6.40873
2023-01-15T13:37:58.392Z,6.18391
2023-01-15T13:42:59.352Z,6.1726
2023-01-15T13:48:00.267Z,6.19909
2023-01-15T13:53:01.248Z,5.99203
2023-01-15T13:58:02.375Z,5.82858
2023-01-15T14:03:03.361Z,5.79434
2023-01-15T14:08:04.358Z,5.92807
2023-01-15T14:13:07.735Z,5.92355
2023-01-15T14:18:08.878Z,5.78465
2023-01-15T14:23:09.824Z,5.68839
2023-01-15T14:28:10.771Z,5.54141
2023-01-15T14:33:11.819Z,5.45096
2023-01-15T14:38:12.774Z,5.43836
2023-01-15T14:43:13.730Z,5.28396
2023-01-15T14:48:14.714Z,5.17284
2023-01-15T14:53:15.678Z,5.07303
2023-01-15T14:58:16.811Z,4.94253
2023-01-15T15:03:17.782Z,4.84788
2023-01-15T15:08:18.755Z,4.91991
2023-01-15T15:13:19.668Z,4.886
2023-01-15T15:18:20.602Z,4.68928
2023-01-15T15:23:21.519Z,4.53972
2023-01-15T15:28:22.487Z,4.40728
2023-01-15T15:33:23.436Z,4.32007
2023-01-15T15:38:24.389Z,4.22154
2023-01-15T15:43:25.402Z,4.12625
2023-01-15T15:48:26.509Z,4.01287
2023-01-15T15:53:27.467Z,3.94989
2023-01-15T15:58:28.407Z,3.83812
2023-01-15T16:03:31.731Z,3.72797
2023-01-15T16:08:33.741Z,3.74089
2023-01-15T16:13:34.672Z,3.71215
2023-01-15T16:18:35.722Z,3.60103
2023-01-15T16:23:36.912Z,3.60297
2023-01-15T16:28:37.836Z,3.59134
2023-01-15T16:33:38.864Z,3.57583
2023-01-15T16:38:39.803Z,3.4954
2023-01-15T16:43:40.771Z,3.42466
2023-01-15T16:48:41.716Z,3.36749
2023-01-15T16:53:43.023Z,3.41852
2023-01-15T16:58:44.304Z,3.40851
2023-01-15T17:03:45.229Z,3.31774
2023-01-15T17:08:46.155Z,3.30095
2023-01-15T17:13:47.075Z,3.23473
2023-01-15T17:18:47.996Z,3.25605
2023-01-15T17:23:48.921Z,3.3003
2023-01-15T17:28:49.814Z,3.24248
2023-01-15T17:33:51.006Z,3.22956
2023-01-15T17:38:51.948Z,3.26477
2023-01-15T17:43:52.854Z,3.29965
2023-01-15T17:48:53.779Z,3.29545
2023-01-15T17:53:54.747Z,3.28221
2023-01-15T17:58:55.672Z,3.27866
2023-01-15T18:03:56.598Z,3.26348
2023-01-15T18:08:57.543Z,3.25443
2023-01-15T18:13:58.456Z,3.25443
2023-01-15T18:18:59.442Z,3.28802
2023-01-15T18:24:00.437Z,3.4308
2023-01-15T18:29:01.463Z,3.40851
2023-01-15T18:34:02.395Z,3.29287
2023-01-15T18:39:03.350Z,3.34714
2023-01-15T18:44:04.287Z,3.28899
2023-01-15T18:49:05.221Z,3.30127
2023-01-15T18:54:06.155Z,3.2764
2023-01-15T18:59:07.089Z,3.23311
2023-01-15T19:04:08.014Z,3.20727
2023-01-15T19:09:08.956Z,3.22342
2023-01-15T19:14:09.856Z,3.24539
2023-01-15T19:19:10.777Z,3.2315
2023-01-15T19:24:11.699Z,3.17077
2023-01-15T19:29:12.764Z,3.22181
2023-01-15T19:34:33.175Z,3.26961
2023-01-15T19:39:34.743Z,3.23667
2023-01-15T19:44:35.666Z,3.15494
2023-01-15T19:49:36.608Z,3.20275
2023-01-15T19:54:37.528Z,3.23925
2023-01-15T19:59:38.472Z,3.21244
2023-01-15T20:04:39.365Z,3.18466
2023-01-15T20:09:40.293Z,3.13233
2023-01-15T20:14:41.246Z,3.20759
2023-01-15T20:19:42.231Z,3.21599
2023-01-15T20:24:43.411Z,3.1908
2023-01-15T20:29:44.441Z,3.09357
2023-01-15T20:34:45.370Z,3.11844
2023-01-15T20:39:46.305Z,3.16592
2023-01-15T20:44:47.258Z,3.14913
2023-01-15T20:49:48.186Z,3.19855
2023-01-15T20:54:49.134Z,3.22342
2023-01-15T20:59:50.084Z,3.20372
2023-01-15T21:04:51.023Z,3.21147
2023-01-15T21:09:52.099Z,3.19855
2023-01-15T21:14:53.030Z,3.2793
2023-01-15T21:19:53.962Z,3.27026
2023-01-15T21:24:54.978Z,3.23344
2023-01-15T21:29:55.921Z,3.28092
2023-01-15T21:34:56.846Z,3.33325
2023-01-15T21:39:57.924Z,3.362
2023-01-15T21:44:58.859Z,3.3943
2023-01-15T21:49:59.810Z,3.3691
2023-01-15T21:55:00.728Z,3.32711
2023-01-15T22:00:01.868Z,3.37039
2023-01-15T22:05:02.775Z,3.31516
2023-01-15T22:10:03.736Z,3.27026
2023-01-15T22:15:04.713Z,3.25088
2023-01-15T22:20:05.702Z,3.27704
2023-01-15T22:25:06.678Z,3.28673
2023-01-15T22:30:07.639Z,3.20081
2023-01-15T22:35:08.602Z,3.15171
2023-01-15T22:40:09.551Z,3.1178
2023-01-15T22:45:10.523Z,3.07839
2023-01-15T22:50:11.470Z,3.05998
2023-01-15T22:55:12.422Z,2.96307
2023-01-15T23:00:13.463Z,2.92366
2023-01-15T23:05:14.388Z,2.81545
2023-01-15T23:10:15.336Z,2.83451
2023-01-15T23:15:16.287Z,2.82514
2023-01-15T23:20:17.209Z,2.86003
2023-01-15T23:25:18.158Z,3.00313
2023-01-15T23:30:19.048Z,2.99053
2023-01-15T23:35:19.937Z,3.0687
2023-01-15T23:40:21.128Z,2.96662
2023-01-15T23:45:22.048Z,2.913
2023-01-15T23:50:22.988Z,2.91171
2023-01-15T23:55:24.017Z,2.88103
